createdAt,value
2022-11-17T13:34:30.426Z,66.96
2022-11-17T13:36:58.895Z,67.43
2022-11-17T13:39:27.900Z,67.35
2022-11-17T13:41:55.648Z,66.44
2022-11-17T13:44:28.348Z,65.83
2022-11-17T13:46:55.340Z,65.66
2022-11-17T13:49:51.034Z,66.44
2022-11-17T13:52:43.622Z,66.25
2022-11-17T13:55:18.770Z,65.70
2022-11-17T13:58:06.873Z,64.68
2022-11-17T14:00:34.454Z,65.28
2022-11-17T14:03:05.973Z,65.56
2022-11-17T14:05:33.764Z,65.50
2022-11-17T14:08:22.657Z,65.52
2022-11-17T14:10:49.332Z,65.65
2022-11-17T14:13:22.908Z,65.88
2022-11-17T14:15:58.949Z,67.72
2022-11-17T14:26:40.631Z,62.45
2022-11-17T14:29:11.248Z,63.44
2022-11-17T14:34:05.276Z,65.17
2022-11-17T14:36:32.672Z,66.29
2022-11-17T14:39:01.188Z,66.10
2022-11-17T14:41:27.754Z,67.08
2022-11-17T14:43:54.221Z,67.26
2022-11-17T14:46:25.922Z,67.71
2022-11-17T14:48:53.595Z,67.67
2022-11-17T14:51:20.776Z,68.46
2022-11-17T14:53:47.976Z,68.47
2022-11-17T14:56:17.852Z,68.49
2022-11-17T14:58:45.165Z,68.49
2022-11-17T15:01:15.552Z,68.33
2022-11-17T15:03:42.754Z,68.87
2022-11-17T15:06:12.122Z,68.70
2022-11-17T15:08:41.771Z,68.99
2022-11-17T15:11:15.322Z,69.06
2022-11-17T15:13:42.982Z,68.66
2022-11-17T15:16:10.458Z,69.00
2022-11-17T15:18:37.108Z,68.96
2022-11-17T15:21:08.403Z,69.41
2022-11-17T15:23:38.338Z,69.53
2022-11-17T15:26:11.424Z,69.19
2022-11-17T15:28:37.868Z,69.34
2022-11-17T15:31:10.840Z,68.96
2022-11-17T15:33:39.445Z,68.94
2022-11-17T15:36:07.258Z,68.99
2022-11-17T15:38:33.902Z,69.19
2022-11-17T15:41:00.370Z,69.08
2022-11-17T15:43:30.801Z,69.02
2022-11-17T15:46:06.288Z,68.92
2022-11-17T15:48:34.601Z,69.12
2022-11-17T15:51:05.495Z,69.05
2022-11-17T15:53:35.175Z,69.44
2022-11-17T15:56:23.210Z,68.83
2022-11-17T15:58:55.835Z,69.30
2022-11-17T16:01:29.199Z,69.36
2022-11-17T16:04:01.582Z,68.95
2022-11-17T16:06:29.842Z,68.99
2022-11-17T16:08:57.581Z,69.23
2022-11-17T16:11:25.807Z,69.24
2022-11-17T16:13:56.728Z,69.19
2022-11-17T16:16:25.363Z,69.17
2022-11-17T16:18:52.068Z,69.20
2022-11-17T16:21:18.930Z,69.48
2022-11-17T16:23:50.750Z,69.47
2022-11-17T16:26:19.293Z,69.38
2022-11-17T16:28:48.898Z,69.68
2022-11-17T16:31:20.955Z,69.79
2022-11-17T16:33:52.914Z,69.79
2022-11-17T16:36:21.543Z,69.54
2022-11-17T16:39:00.775Z,70.01
2022-11-17T16:41:31.767Z,70.09
2022-11-17T16:43:58.745Z,69.81
2022-11-17T16:46:29.163Z,70.35
2022-11-17T16:48:56.898Z,70.37
2022-11-17T16:51:23.681Z,70.40
2022-11-17T16:54:04.990Z,70.52
2022-11-17T16:56:32.104Z,70.40
2022-11-17T16:58:59.254Z,69.78
2022-11-17T17:01:30.450Z,69.78
2022-11-17T17:03:59.075Z,69.94
2022-11-17T17:06:26.308Z,69.94
2022-11-17T17:08:54.825Z,69.64
2022-11-17T17:11:21.852Z,70.24
2022-11-17T17:13:48.702Z,69.86
2022-11-17T17:16:17.561Z,69.83
2022-11-17T17:18:44.489Z,70.16
2022-11-17T17:21:17.787Z,70.13
2022-11-17T17:23:45.641Z,70.64
2022-11-17T17:26:16.759Z,70.60
2022-11-17T17:28:47.233Z,70.24
2022-11-17T17:31:20.774Z,70.28
2022-11-17T17:33:48.926Z,70.45
2022-11-17T17:36:18.136Z,70.43
2022-11-17T17:38:48.826Z,70.52
2022-11-17T17:41:19.711Z,71.00
2022-11-17T17:43:47.565Z,70.79
2022-11-17T17:46:17.739Z,71.07
2022-11-17T17:48:45.654Z,71.18
2022-11-17T17:51:15.494Z,71.39
2022-11-17T17:53:42.277Z,71.97
2022-11-17T17:56:11.660Z,72.21
2022-11-17T17:58:42.311Z,72.34
2022-11-17T18:01:14.402Z,72.70
2022-11-17T18:03:48.332Z,72.67
2022-11-17T18:06:17.349Z,72.79
2022-11-17T18:08:43.886Z,73.36
2022-11-17T18:11:13.321Z,72.75
2022-11-17T18:13:42.371Z,72.99
2022-11-17T18:16:14.869Z,72.88
2022-11-17T18:18:42.350Z,72.91
2022-11-17T18:21:14.073Z,73.15
2022-11-17T18:23:41.552Z,73.20
2022-11-17T18:26:18.327Z,73.38
2022-11-17T18:28:54.377Z,72.93
2022-11-17T18:31:22.938Z,72.93
2022-11-17T18:33:57.324Z,73.04
2022-11-17T18:36:25.063Z,72.96
2022-11-17T18:38:52.809Z,73.19
2022-11-17T18:41:20.826Z,73.06
2022-11-17T18:43:48.082Z,73.44
2022-11-17T18:46:21.397Z,73.35
2022-11-17T18:48:49.887Z,73.22
2022-11-17T18:51:19.992Z,73.08
2022-11-17T18:53:48.614Z,73.16
2022-11-17T18:56:17.548Z,73.13
2022-11-17T18:58:44.218Z,73.25
2022-11-17T19:01:14.780Z,73.44
2022-11-17T19:03:42.831Z,73.82
2022-11-17T19:06:10.241Z,73.92
2022-11-17T19:08:37.701Z,73.91
2022-11-17T19:11:06.574Z,74.12
2022-11-17T19:13:35.581Z,73.87
2022-11-17T19:16:15.193Z,74.44
2022-11-17T19:18:42.854Z,74.26
2022-11-17T19:21:12.075Z,74.67
2022-11-17T19:23:49.587Z,74.40
2022-11-17T19:26:25.133Z,74.22
2022-11-17T19:28:59.216Z,74.99
2022-11-17T19:31:26.541Z,74.71
2022-11-17T19:33:53.340Z,75.15
2022-11-17T19:36:22.605Z,75.03
2022-11-17T19:38:51.168Z,75.67
2022-11-17T19:41:20.553Z,75.07
2022-11-17T19:43:47.242Z,75.36
2022-11-17T19:46:15.978Z,75.73
2022-11-17T19:48:43.831Z,75.32
2022-11-17T19:51:25.203Z,75.49
2022-11-17T19:53:54.821Z,75.60
2022-11-17T19:56:22.521Z,75.78
2022-11-17T19:58:49.857Z,76.21
2022-11-17T20:01:18.817Z,75.96
2022-11-17T20:03:46.305Z,76.49
2022-11-17T20:06:17.502Z,76.65
2022-11-17T20:08:44.844Z,76.68
2022-11-17T20:11:33.398Z,76.63
2022-11-17T20:13:59.850Z,76.94
2022-11-17T20:16:27.392Z,77.30
2022-11-17T20:18:56.361Z,76.95
2022-11-17T20:21:23.779Z,77.23
2022-11-17T20:23:50.875Z,77.20
2022-11-17T20:26:23.347Z,77.03
2022-11-17T20:28:51.141Z,77.14
2022-11-17T20:31:21.839Z,77.75
2022-11-17T20:33:48.888Z,77.22
2022-11-17T20:36:20.426Z,77.74
2022-11-17T20:38:51.663Z,77.87
2022-11-17T20:41:20.881Z,77.91
2022-11-17T20:43:49.070Z,77.74
2022-11-17T20:46:15.491Z,77.73
2022-11-17T20:48:42.342Z,78.07
2022-11-17T20:51:17.094Z,77.87
2022-11-17T20:53:44.180Z,77.89
2022-11-17T20:56:12.417Z,78.17
2022-11-17T20:58:39.300Z,77.88
2022-11-17T21:01:14.563Z,78.18
2022-11-17T21:03:41.590Z,78.22
2022-11-17T21:06:08.376Z,78.09
2022-11-17T21:08:37.845Z,78.29
2022-11-17T21:11:08.079Z,78.19
2022-11-17T21:13:36.161Z,78.35
2022-11-17T21:16:05.706Z,78.41
2022-11-17T21:18:32.856Z,78.57
2022-11-17T21:21:00.256Z,78.35
2022-11-17T21:23:27.589Z,78.68
2022-11-17T21:25:54.525Z,78.60
2022-11-17T21:28:21.038Z,78.48
2022-11-17T21:30:47.618Z,78.48
2022-11-17T21:33:14.384Z,78.32
2022-11-17T21:35:40.900Z,78.71
2022-11-17T21:38:07.395Z,78.68
2022-11-17T21:40:34.155Z,78.52
2022-11-17T21:43:00.706Z,79.08
2022-11-17T21:45:27.240Z,79.25
2022-11-17T21:47:59.231Z,79.00
2022-11-17T21:50:26.101Z,79.02
2022-11-17T21:52:52.550Z,78.82
2022-11-17T21:55:19.108Z,79.17
2022-11-17T21:57:45.529Z,78.91
2022-11-17T22:00:12.868Z,78.69
2022-11-17T22:02:39.566Z,78.44
2022-11-17T22:05:06.535Z,78.55
2022-11-17T22:07:33.052Z,78.93
2022-11-17T22:09:59.538Z,78.84
2022-11-17T22:12:27.437Z,78.63
2022-11-17T22:14:53.932Z,78.77
2022-11-17T22:17:20.360Z,78.69
2022-11-17T22:19:46.796Z,78.78
2022-11-17T22:22:13.289Z,79.07
2022-11-17T22:24:40.185Z,78.74
2022-11-17T22:27:07.029Z,78.51
2022-11-17T22:29:33.588Z,78.60
2022-11-17T22:32:00.163Z,78.65
2022-11-17T22:34:26.652Z,79.13
2022-11-17T22:36:53.147Z,78.81
2022-11-17T22:39:20.033Z,79.26
2022-11-17T22:41:46.630Z,79.06
2022-11-17T22:44:14.599Z,79.40
2022-11-17T22:46:43.099Z,79.43
2022-11-17T22:49:10.323Z,79.04
2022-11-17T22:51:55.208Z,79.13
2022-11-17T22:54:21.686Z,79.44
2022-11-17T22:56:48.518Z,79.29
2022-11-17T22:59:15.286Z,79.56
2022-11-17T23:01:41.930Z,80.19
2022-11-17T23:04:08.435Z,80.24
2022-11-17T23:06:35.041Z,79.98
2022-11-17T23:09:01.512Z,79.86
2022-11-17T23:11:37.562Z,79.98
2022-11-17T23:14:09.848Z,79.74
2022-11-17T23:16:37.488Z,80.39
2022-11-17T23:19:04.786Z,80.13
2022-11-17T23:21:31.277Z,79.77
2022-11-17T23:23:57.947Z,80.13
2022-11-17T23:26:24.469Z,80.15
2022-11-17T23:28:51.209Z,80.45
2022-11-17T23:31:18.002Z,79.82
2022-11-17T23:33:46.903Z,80.38
2022-11-17T23:36:21.822Z,79.89
2022-11-17T23:38:50.257Z,79.80
2022-11-17T23:41:19.405Z,80.30
2022-11-17T23:43:46.285Z,79.96
2022-11-17T23:46:15.333Z,80.00
2022-11-17T23:48:42.828Z,79.75
2022-11-17T23:51:15.096Z,80.12
2022-11-17T23:53:42.389Z,80.18
2022-11-17T23:56:10.297Z,79.67
2022-11-17T23:58:37.088Z,80.19
